Forest Heights, Oregon
Current Conditions -  °F | °C
As of 4:53 PM on Wednesday 26 Nov 2014 (Local Time) from KHIO Reporting Station
Clear Clear  
Wind Chill: 56°   Ceiling: Unl
Heat Index: 56°   Visibility: 10mi
Dew Point: 50°   Wind: 0mph
Humidity: 80%   Direction: NA
Pressure: 30.04"   Gusts: NA
Location:  45.5526°N, 122.821°W
Report Text: KHIO 270053Z 00000KT 10SM CLR 13/10 A3004 RMK AO2 SLP170 T01330100
Loading
Personal Weather Stations






























Interactive Weather Map New forecast layout! Learn more

10-Day Weather Forecast

Advertisements
Track Severe Weather on mobile